createdAt,value
2023-02-19T00:01:49.066Z,101714.66
2023-02-19T00:04:21.765Z,101695.72
2023-02-19T00:06:49.069Z,101770.91
2023-02-19T00:09:17.059Z,101711.56
2023-02-19T00:11:43.800Z,101757.00
2023-02-19T00:14:11.470Z,101663.63
2023-02-19T00:16:39.465Z,101710.88
2023-02-19T00:19:08.245Z,101689.31
2023-02-19T00:21:34.776Z,101755.75
2023-02-19T00:24:03.641Z,101773.88
2023-02-19T00:26:30.619Z,101745.50
2023-02-19T00:28:58.318Z,101788.50
2023-02-19T00:31:25.820Z,101782.09
2023-02-19T00:33:54.507Z,101738.44
2023-02-19T00:36:21.615Z,101715.47
2023-02-19T00:38:48.796Z,101779.88
2023-02-19T00:41:19.658Z,101691.34
2023-02-19T00:43:55.187Z,101785.63
2023-02-19T00:46:24.239Z,101707.31
2023-02-19T00:48:52.612Z,101723.09
2023-02-19T00:51:20.172Z,101722.97
2023-02-19T00:53:46.620Z,101652.03
2023-02-19T00:56:13.191Z,101717.94
2023-02-19T00:58:39.783Z,101702.66
2023-02-19T01:01:06.727Z,101660.91
2023-02-19T01:03:34.169Z,101790.94
2023-02-19T01:06:01.179Z,101782.09
2023-02-19T01:08:28.234Z,101698.94
2023-02-19T01:10:54.689Z,101728.03
2023-02-19T01:13:21.243Z,101680.00
2023-02-19T01:15:47.723Z,101728.97
2023-02-19T01:18:14.203Z,101733.88
2023-02-19T01:20:42.683Z,101775.50
2023-02-19T01:23:11.258Z,101791.47
2023-02-19T01:25:42.667Z,101746.44
2023-02-19T01:28:10.484Z,101728.53
2023-02-19T01:30:38.131Z,101753.25
2023-02-19T01:33:08.391Z,101817.81
2023-02-19T01:35:38.556Z,101821.09
2023-02-19T01:38:05.131Z,101721.72
2023-02-19T01:40:31.566Z,101725.63
2023-02-19T01:42:57.998Z,101655.31
2023-02-19T01:45:35.103Z,101729.19
2023-02-19T01:48:09.416Z,101650.31
2023-02-19T01:50:44.590Z,101763.47
2023-02-19T01:53:12.361Z,101780.38
2023-02-19T01:55:39.137Z,101715.94
2023-02-19T01:58:05.996Z,101726.31
2023-02-19T02:00:33.659Z,101731.22
2023-02-19T02:03:00.766Z,101773.28
2023-02-19T02:05:38.347Z,101822.81
2023-02-19T02:08:23.579Z,101754.66
2023-02-19T02:10:50.516Z,101753.06
2023-02-19T02:13:17.337Z,101738.44
2023-02-19T02:15:56.774Z,101830.03
2023-02-19T02:18:29.547Z,101837.00
2023-02-19T02:21:33.703Z,101822.50
2023-02-19T02:24:05.530Z,101833.41
2023-02-19T02:27:12.641Z,101761.03
2023-02-19T02:30:05.555Z,101811.69
2023-02-19T02:32:58.370Z,101828.91
2023-02-19T02:35:28.517Z,101795.22
2023-02-19T02:37:58.640Z,101763.78
2023-02-19T02:40:25.482Z,101738.78
2023-02-19T02:42:51.980Z,101738.81
2023-02-19T02:45:36.878Z,101842.06
2023-02-19T02:48:37.092Z,101826.72
2023-02-19T02:51:10.093Z,101837.81
2023-02-19T02:54:04.577Z,101781.53
2023-02-19T02:56:31.203Z,101800.66
2023-02-19T02:58:58.962Z,101848.06
2023-02-19T03:01:48.542Z,101819.09
2023-02-19T03:04:22.569Z,101755.19
2023-02-19T03:06:49.807Z,101816.63
2023-02-19T03:09:22.520Z,101849.69
2023-02-19T03:12:08.666Z,101854.03
2023-02-19T03:15:00.890Z,101766.22
2023-02-19T03:18:08.238Z,101861.13
2023-02-19T03:20:37.261Z,101801.69
2023-02-19T03:23:05.257Z,101812.75
2023-02-19T03:25:51.160Z,101823.66
2023-02-19T03:28:20.123Z,101786.38
2023-02-19T03:30:52.547Z,101867.66
2023-02-19T03:33:22.739Z,101822.72
2023-02-19T03:35:58.734Z,101801.78
2023-02-19T03:38:30.121Z,101872.91
2023-02-19T03:41:04.259Z,101810.69
2023-02-19T03:43:54.016Z,101877.88
2023-02-19T03:46:25.903Z,101809.19
2023-02-19T03:48:57.225Z,101779.63
2023-02-19T03:51:42.082Z,101782.84
2023-02-19T03:54:29.264Z,101888.66
2023-02-19T03:57:03.766Z,101832.84
2023-02-19T03:59:32.808Z,101900.53
2023-02-19T04:02:06.659Z,101908.13
2023-02-19T04:04:39.363Z,101833.75
2023-02-19T04:07:06.026Z,101846.44
2023-02-19T04:09:41.852Z,101873.47
2023-02-19T04:12:08.934Z,101917.50
2023-02-19T04:14:47.564Z,101811.41
2023-02-19T04:17:19.680Z,101923.13
2023-02-19T04:19:48.489Z,101895.31
2023-02-19T04:22:16.163Z,101834.16
2023-02-19T04:24:48.306Z,101857.44
2023-02-19T04:27:14.874Z,101886.69
2023-02-19T04:29:41.466Z,101827.22
2023-02-19T04:32:10.814Z,101855.06
2023-02-19T04:34:37.314Z,101897.81
2023-02-19T04:37:03.867Z,101785.91
2023-02-19T04:39:30.455Z,101846.53
2023-02-19T04:41:56.932Z,101875.25
2023-02-19T04:44:23.442Z,101845.72
2023-02-19T04:46:50.069Z,101867.84
2023-02-19T04:49:16.549Z,101847.22
2023-02-19T04:51:42.942Z,101880.59
2023-02-19T04:54:09.501Z,101935.19
2023-02-19T04:56:36.002Z,101872.03
2023-02-19T04:59:02.632Z,101884.22
2023-02-19T05:01:29.128Z,101984.28
2023-02-19T05:03:55.598Z,101910.72
2023-02-19T05:06:22.052Z,101902.38
2023-02-19T05:08:48.686Z,101938.41
2023-02-19T05:11:15.221Z,101952.38
2023-02-19T05:13:42.727Z,101929.06
2023-02-19T05:16:15.901Z,101945.94
2023-02-19T05:18:43.338Z,101966.13
2023-02-19T05:21:11.444Z,101899.53
2023-02-19T05:23:38.769Z,102013.38
2023-02-19T05:26:07.224Z,101946.25
2023-02-19T05:28:33.956Z,101947.75
2023-02-19T05:31:05.115Z,101954.63
2023-02-19T05:33:31.551Z,101931.72
2023-02-19T05:35:58.072Z,101926.84
2023-02-19T05:38:24.711Z,101905.56
2023-02-19T05:40:51.582Z,102028.28
2023-02-19T05:43:18.039Z,101941.50
2023-02-19T05:45:44.487Z,101936.19
2023-02-19T05:48:12.873Z,101937.53
2023-02-19T05:50:39.980Z,101975.41
2023-02-19T05:53:06.594Z,101996.31
2023-02-19T05:55:36.718Z,101965.28
2023-02-19T05:58:03.549Z,101948.84
2023-02-19T06:00:30.471Z,101970.47
2023-02-19T06:02:56.877Z,101946.50
2023-02-19T06:05:23.375Z,101939.47
2023-02-19T06:07:50.514Z,101921.75
2023-02-19T06:10:17.495Z,101949.94
2023-02-19T06:12:44.067Z,101954.53
2023-02-19T06:15:10.702Z,102035.41
2023-02-19T06:17:37.200Z,101971.22
2023-02-19T06:20:03.862Z,102073.31
2023-02-19T06:22:31.410Z,102030.63
2023-02-19T06:24:58.090Z,102030.28
2023-02-19T06:27:24.525Z,102027.91
2023-02-19T06:29:50.988Z,102085.22
2023-02-19T06:32:17.598Z,102046.75
2023-02-19T06:34:44.119Z,102042.41
2023-02-19T06:37:10.553Z,102062.59
2023-02-19T06:39:37.097Z,102041.47
2023-02-19T06:42:03.717Z,102014.84
2023-02-19T06:44:30.172Z,102069.44
2023-02-19T06:46:56.684Z,102016.38
2023-02-19T06:49:23.175Z,102053.81
2023-02-19T06:51:49.621Z,102040.06
2023-02-19T06:54:16.051Z,102042.19
2023-02-19T06:56:46.085Z,102088.59
2023-02-19T06:59:16.934Z,102039.38
2023-02-19T07:01:43.910Z,102123.63
2023-02-19T07:04:10.407Z,102014.28
2023-02-19T07:06:38.810Z,102134.53
2023-02-19T07:09:06.887Z,102027.91
2023-02-19T07:11:34.832Z,102038.44
2023-02-19T07:14:03.537Z,101995.22
2023-02-19T07:16:30.410Z,102006.28
2023-02-19T07:18:57.985Z,102145.22
2023-02-19T07:21:24.484Z,102154.19
2023-02-19T07:23:51.014Z,102157.38
2023-02-19T07:26:19.776Z,102154.53
2023-02-19T07:28:48.233Z,102032.00
2023-02-19T07:31:17.583Z,102072.91
2023-02-19T07:33:45.187Z,102157.38
2023-02-19T07:36:12.123Z,102102.03
2023-02-19T07:38:38.623Z,102056.69
2023-02-19T07:41:05.760Z,102044.59
2023-02-19T07:43:34.708Z,102041.53
2023-02-19T07:46:09.845Z,102060.22
2023-02-19T07:48:37.319Z,102030.50
2023-02-19T07:51:05.466Z,102032.50
2023-02-19T07:53:33.572Z,102136.22
2023-02-19T07:56:04.386Z,102100.97
2023-02-19T07:58:31.616Z,102127.28
2023-02-19T08:00:58.395Z,102108.94
2023-02-19T08:03:24.948Z,102058.91
2023-02-19T08:05:53.806Z,102148.81
2023-02-19T08:08:20.339Z,102075.75
2023-02-19T08:11:05.511Z,102116.28
2023-02-19T08:13:32.200Z,102077.97
2023-02-19T08:16:15.957Z,102235.47
2023-02-19T08:18:44.530Z,102128.84
2023-02-19T08:21:11.626Z,102084.44
2023-02-19T08:23:38.561Z,102192.59
2023-02-19T08:26:05.550Z,102093.25
2023-02-19T08:28:32.409Z,102227.72
2023-02-19T08:31:01.593Z,102199.38
2023-02-19T08:33:28.236Z,102236.09
2023-02-19T08:35:55.111Z,102126.38
2023-02-19T08:38:21.759Z,102095.13
2023-02-19T08:40:48.243Z,102162.94
2023-02-19T08:43:16.986Z,102153.19
2023-02-19T08:45:45.137Z,102204.56
2023-02-19T08:48:11.982Z,102109.84
2023-02-19T08:50:38.696Z,102222.44
2023-02-19T08:53:06.231Z,102150.97
2023-02-19T08:55:33.280Z,102095.47
2023-02-19T08:58:04.117Z,102167.06
2023-02-19T09:00:30.550Z,102108.16
2023-02-19T09:02:58.232Z,102223.00
2023-02-19T09:05:24.775Z,102148.47
2023-02-19T09:07:51.233Z,102127.19
2023-02-19T09:10:17.683Z,102134.34
2023-02-19T09:12:44.098Z,102137.31
2023-02-19T09:15:10.593Z,102274.97
2023-02-19T09:17:37.062Z,102134.63
2023-02-19T09:20:04.153Z,102134.34
2023-02-19T09:22:30.701Z,102167.72
2023-02-19T09:24:57.105Z,102162.69
2023-02-19T09:27:23.519Z,102218.41
2023-02-19T09:29:49.948Z,102149.19
2023-02-19T09:32:19.140Z,102206.56
2023-02-19T09:34:45.832Z,102185.66
2023-02-19T09:37:12.311Z,102261.25
2023-02-19T09:39:39.846Z,102265.28
2023-02-19T09:42:15.908Z,102366.50
2023-02-19T09:44:44.713Z,102281.63
2023-02-19T09:47:19.937Z,102295.97
2023-02-19T09:49:52.140Z,102321.28
2023-02-19T09:52:41.512Z,102389.78
2023-02-19T09:55:31.660Z,102390.50
2023-02-19T09:57:59.503Z,102389.09
2023-02-19T10:00:28.032Z,102336.19
2023-02-19T10:03:05.855Z,102332.66
2023-02-19T10:05:33.563Z,102350.19
2023-02-19T10:08:00.425Z,102312.25
2023-02-19T10:10:30.305Z,102360.16
2023-02-19T10:13:10.282Z,102381.13
2023-02-19T10:15:46.277Z,102398.09
2023-02-19T10:18:12.900Z,102353.19
2023-02-19T10:20:40.265Z,102447.47
2023-02-19T10:23:08.144Z,102285.56
2023-02-19T10:25:42.545Z,102257.38
2023-02-19T10:28:22.164Z,102395.03
2023-02-19T10:30:54.423Z,102308.69
2023-02-19T10:33:22.132Z,102311.72
2023-02-19T10:36:06.694Z,102356.31
2023-02-19T10:38:39.447Z,102389.69
2023-02-19T10:41:17.692Z,102485.03
2023-02-19T10:43:57.420Z,102369.03
2023-02-19T10:46:33.582Z,102403.34
2023-02-19T10:49:20.175Z,102476.34
2023-02-19T10:51:47.990Z,102435.50
2023-02-19T10:54:20.932Z,102404.13
2023-02-19T10:56:47.488Z,102317.44
2023-02-19T10:59:28.645Z,102331.47
2023-02-19T11:01:58.210Z,102464.78
2023-02-19T11:04:26.623Z,102325.25
2023-02-19T11:06:53.247Z,102455.22
2023-02-19T11:09:22.628Z,102470.16
2023-02-19T11:11:54.381Z,102476.75
2023-02-19T11:14:24.186Z,102296.44
2023-02-19T11:16:53.356Z,102487.81
2023-02-19T11:19:48.585Z,102475.91
2023-02-19T11:22:35.745Z,102491.09
2023-02-19T11:25:07.315Z,102490.06
2023-02-19T11:27:33.796Z,102416.88
2023-02-19T11:30:33.973Z,102480.06
2023-02-19T11:33:20.274Z,102492.56
2023-02-19T11:35:48.198Z,102482.91
2023-02-19T11:38:17.079Z,102501.97
2023-02-19T11:41:03.221Z,102506.44
2023-02-19T11:44:12.241Z,102497.34
2023-02-19T11:46:50.856Z,102515.72
2023-02-19T11:49:27.038Z,102481.88
2023-02-19T11:52:12.232Z,102496.59
2023-02-19T11:54:49.250Z,102493.97
2023-02-19T11:57:38.544Z,102506.81
2023-02-19T12:00:27.911Z,102501.88
2023-02-19T12:03:17.896Z,102498.69
2023-02-19T12:06:00.086Z,102501.41
2023-02-19T12:09:02.921Z,102509.34
2023-02-19T12:11:40.437Z,102413.38
2023-02-19T12:14:39.792Z,102512.81
2023-02-19T12:17:33.965Z,102514.59
2023-02-19T12:20:14.076Z,102519.00
2023-02-19T12:22:50.105Z,102422.03
2023-02-19T12:25:25.379Z,102491.34
2023-02-19T12:28:01.389Z,102512.19
2023-02-19T12:30:46.669Z,102520.56
2023-02-19T12:33:19.182Z,102515.69
2023-02-19T12:36:20.894Z,102513.28
2023-02-19T12:39:09.034Z,102529.03
2023-02-19T12:41:49.896Z,102478.00
2023-02-19T12:44:56.129Z,102529.53
2023-02-19T12:58:05.854Z,102563.00
2023-02-19T13:00:58.912Z,102552.13
2023-02-19T14:51:42.354Z,102558.06
2023-02-19T14:54:16.555Z,102550.69
2023-02-19T14:56:45.304Z,102544.78
2023-02-19T14:59:11.647Z,102561.44
2023-02-19T15:01:38.829Z,102552.69
2023-02-19T15:04:05.738Z,102525.34
2023-02-19T15:06:34.450Z,102532.16
2023-02-19T15:09:05.406Z,102558.97
2023-02-19T15:11:32.520Z,102544.94
2023-02-19T15:14:02.210Z,102540.00
2023-02-19T15:16:29.689Z,102569.44
2023-02-19T15:18:58.175Z,102593.22
2023-02-19T15:21:26.507Z,102597.75
2023-02-19T15:23:58.561Z,102603.94
2023-02-19T15:26:35.879Z,102563.97
2023-02-19T15:29:11.087Z,102608.97
2023-02-19T15:31:49.501Z,102612.13
2023-02-19T15:34:27.347Z,102601.81
2023-02-19T15:36:59.040Z,102590.94
2023-02-19T15:39:41.922Z,102624.81
2023-02-19T15:42:11.036Z,102616.44
2023-02-19T15:44:52.214Z,102585.78
2023-02-19T15:47:51.791Z,102617.34
2023-02-19T15:50:32.044Z,102616.81
2023-02-19T15:53:09.131Z,102616.69
2023-02-19T15:55:38.545Z,102614.25
2023-02-19T15:58:09.199Z,102616.47
2023-02-19T16:00:41.040Z,102631.09
2023-02-19T16:03:22.954Z,102631.81
2023-02-19T16:06:04.759Z,102642.88
2023-02-19T16:08:36.514Z,102641.41
2023-02-19T16:11:07.253Z,102642.75
2023-02-19T16:13:34.714Z,102643.66
2023-02-19T16:16:06.706Z,102652.03
2023-02-19T16:18:33.468Z,102581.09
2023-02-19T16:21:00.435Z,102648.44
2023-02-19T16:23:27.327Z,102639.22
2023-02-19T16:26:01.695Z,102663.41
2023-02-19T16:28:29.710Z,102590.59
2023-02-19T16:30:57.464Z,102652.34
2023-02-19T16:33:35.665Z,102666.72
2023-02-19T16:36:28.811Z,102670.09
2023-02-19T16:38:58.927Z,102627.97
2023-02-19T16:41:25.295Z,102670.88
2023-02-19T16:43:51.711Z,102655.34
2023-02-19T16:46:18.335Z,102627.34
2023-02-19T16:48:44.816Z,102636.94
2023-02-19T16:51:17.429Z,102589.03
2023-02-19T16:53:43.861Z,102650.03
2023-02-19T16:56:16.269Z,102645.91
2023-02-19T16:58:42.754Z,102651.22
2023-02-19T17:01:09.767Z,102572.06
2023-02-19T17:03:38.101Z,102649.28
2023-02-19T17:06:04.943Z,102654.25
2023-02-19T17:08:36.941Z,102656.41
2023-02-19T17:11:06.716Z,102622.38
2023-02-19T17:13:33.306Z,102632.19
2023-02-19T17:15:59.809Z,102661.16
2023-02-19T17:18:26.328Z,102672.47
2023-02-19T17:21:12.537Z,102685.78
2023-02-19T17:23:39.136Z,102672.72
2023-02-19T17:26:05.536Z,102640.06
2023-02-19T17:28:31.968Z,102660.31
2023-02-19T17:30:58.416Z,102671.28
2023-02-19T17:33:24.865Z,102685.28
2023-02-19T17:35:51.424Z,102673.03
2023-02-19T17:38:17.862Z,102694.03
2023-02-19T17:40:45.191Z,102615.34
2023-02-19T17:43:11.591Z,102652.63
2023-02-19T17:45:38.421Z,102705.31
2023-02-19T17:48:05.071Z,102640.06
2023-02-19T17:50:32.013Z,102701.06
2023-02-19T17:52:58.854Z,102686.78
2023-02-19T17:55:26.595Z,102701.00
2023-02-19T17:57:53.383Z,102656.06
2023-02-19T18:00:22.835Z,102672.34
2023-02-19T18:02:49.365Z,102613.66
2023-02-19T18:05:16.151Z,102699.13
2023-02-19T18:07:43.404Z,102609.72
2023-02-19T18:10:10.493Z,102685.91
2023-02-19T18:12:38.213Z,102645.09
2023-02-19T18:15:05.226Z,102612.00
2023-02-19T18:17:31.668Z,102647.81
2023-02-19T18:19:58.081Z,102584.69
2023-02-19T18:22:24.735Z,102677.56
2023-02-19T18:24:53.250Z,102691.25
2023-02-19T18:35:40.692Z,102681.78
2023-02-19T18:38:07.144Z,102678.03
2023-02-19T18:40:33.750Z,102696.56
2023-02-19T18:43:00.292Z,102674.56
2023-02-19T18:45:27.535Z,102651.47
2023-02-19T18:47:54.174Z,102668.94
2023-02-19T18:50:20.620Z,102596.97
2023-02-19T18:52:47.150Z,102689.97
2023-02-19T18:55:13.673Z,102670.06
2023-02-19T18:57:40.106Z,102659.84
2023-02-19T19:00:07.566Z,102686.50
2023-02-19T19:02:48.272Z,102690.63
2023-02-19T19:05:22.670Z,102676.44
2023-02-19T19:07:51.026Z,102674.34
2023-02-19T19:10:18.134Z,102596.69
2023-02-19T19:12:44.660Z,102678.28
2023-02-19T19:15:11.239Z,102678.91
2023-02-19T19:17:38.709Z,102700.19
2023-02-19T19:20:05.763Z,102698.78
2023-02-19T19:22:32.158Z,102615.56
2023-02-19T19:24:59.930Z,102614.41
2023-02-19T19:27:26.355Z,102619.47
2023-02-19T19:29:52.813Z,102699.50
2023-02-19T19:32:19.410Z,102705.44
2023-02-19T19:34:45.887Z,102688.91
2023-02-19T19:37:12.415Z,102695.75
2023-02-19T19:39:38.814Z,102666.50
2023-02-19T19:42:07.785Z,102700.25
2023-02-19T19:44:34.245Z,102691.88
2023-02-19T19:47:00.680Z,102710.06
2023-02-19T19:49:27.107Z,102700.94
2023-02-19T19:51:53.490Z,102665.84
2023-02-19T19:54:20.986Z,102590.91
2023-02-19T19:56:47.786Z,102668.63
2023-02-19T19:59:16.025Z,102622.19
2023-02-19T20:01:53.634Z,102672.09
2023-02-19T20:04:22.572Z,102695.28
2023-02-19T20:06:49.461Z,102675.13
2023-02-19T20:09:16.733Z,102676.59
2023-02-19T20:11:47.708Z,102695.28
2023-02-19T20:14:14.635Z,102686.38
2023-02-19T20:16:42.671Z,102684.81
2023-02-19T20:19:10.411Z,102696.31
2023-02-19T20:26:08.819Z,102690.59
2023-02-19T20:28:35.273Z,102677.13
2023-02-19T20:31:01.748Z,102595.06
2023-02-19T20:33:28.242Z,102616.88
2023-02-19T20:35:56.683Z,102601.53
2023-02-19T20:38:23.235Z,102654.13
2023-02-19T20:52:06.739Z,102680.34
2023-02-19T20:54:34.404Z,102672.38
2023-02-19T20:57:03.312Z,102675.63
2023-02-19T21:06:31.967Z,102641.28
2023-02-19T21:08:58.608Z,102614.28
2023-02-19T21:22:24.154Z,102608.91
2023-02-19T21:24:53.000Z,102618.69
2023-02-19T21:27:19.992Z,102634.53
2023-02-19T21:29:47.508Z,102636.38
2023-02-19T21:32:14.174Z,102635.47
2023-02-19T21:34:40.704Z,102638.19
2023-02-19T21:37:07.214Z,102645.75
2023-02-19T21:43:46.232Z,102629.25
2023-02-19T21:46:18.111Z,102638.56
2023-02-19T21:48:47.818Z,102585.03
2023-02-19T21:51:14.476Z,102633.31
2023-02-19T21:53:40.853Z,102644.44
2023-02-19T21:56:08.410Z,102651.72
2023-02-19T21:58:34.958Z,102643.75
2023-02-19T22:01:01.655Z,102554.91
2023-02-19T22:03:28.256Z,102623.06
2023-02-19T22:05:55.021Z,102545.13
2023-02-19T22:08:21.420Z,102605.75
2023-02-19T22:10:47.829Z,102616.84
2023-02-19T22:13:14.207Z,102631.34
2023-02-19T22:15:40.633Z,102632.00
2023-02-19T22:18:07.036Z,102625.63
2023-02-19T22:20:34.612Z,102553.19
2023-02-19T22:23:01.014Z,102590.06
2023-02-19T22:25:27.395Z,102624.94
2023-02-19T22:27:53.830Z,102606.50
2023-02-19T22:30:20.619Z,102623.47
2023-02-19T22:32:47.144Z,102587.66
2023-02-19T22:35:15.670Z,102603.41
2023-02-19T22:37:42.250Z,102604.22
2023-02-19T22:40:08.950Z,102584.56
2023-02-19T22:42:36.094Z,102560.66
2023-02-19T22:45:02.703Z,102606.19
2023-02-19T22:47:29.131Z,102584.63
2023-02-19T22:49:55.518Z,102590.00
2023-02-19T22:52:22.062Z,102569.63
2023-02-19T22:54:48.438Z,102591.72
2023-02-19T22:57:14.870Z,102545.63
2023-02-19T22:59:41.267Z,102545.91
2023-02-19T23:02:07.657Z,102516.81
2023-02-19T23:04:34.284Z,102523.19
2023-02-19T23:07:00.940Z,102562.75
2023-02-19T23:09:28.680Z,102561.84
2023-02-19T23:12:06.335Z,102555.81
2023-02-19T23:14:32.827Z,102528.34
2023-02-19T23:16:59.403Z,102562.56
2023-02-19T23:19:26.386Z,102570.28
2023-02-19T23:21:53.239Z,102535.22
2023-02-19T23:24:20.143Z,102565.66
2023-02-19T23:26:49.226Z,102570.72
2023-02-19T23:29:21.034Z,102559.41
2023-02-19T23:31:47.637Z,102545.53
2023-02-19T23:34:14.640Z,102571.34
2023-02-19T23:36:42.299Z,102569.22
2023-02-19T23:39:13.541Z,102548.44
2023-02-19T23:41:45.922Z,102531.34
2023-02-19T23:44:12.334Z,102558.28
2023-02-19T23:46:38.794Z,102546.66
2023-02-19T23:49:05.255Z,102536.53
2023-02-19T23:51:31.709Z,102532.34
2023-02-19T23:53:58.178Z,102508.88
2023-02-19T23:56:28.953Z,102529.56
2023-02-19T23:58:56.025Z,102494.53
